createdAt,value
2018-11-20T00:00:26.907Z,6.62
2018-11-20T00:03:13.663Z,6.62
2018-11-20T00:06:00.444Z,6.00
2018-11-20T00:09:07.079Z,6.45
2018-11-20T00:11:55.525Z,5.33
2018-11-20T00:14:37.691Z,6.42
2018-11-20T00:17:20.729Z,5.47
2018-11-20T00:20:18.205Z,5.60
2018-11-20T00:22:56.416Z,5.87
2018-11-20T00:25:44.938Z,6.58
2018-11-20T00:28:23.488Z,6.62
2018-11-20T00:31:10.205Z,6.65
2018-11-20T00:34:04.623Z,6.47
2018-11-20T00:37:02.934Z,6.28
2018-11-20T00:46:40.734Z,5.28
2018-11-20T00:49:29.057Z,5.22
2018-11-20T00:52:12.744Z,6.72
2018-11-20T00:55:09.952Z,5.40
2018-11-20T00:57:51.851Z,7.03
2018-11-20T01:00:31.598Z,5.80
2018-11-20T01:03:16.469Z,5.97
2018-11-20T01:06:10.788Z,7.12
2018-11-20T01:08:52.676Z,6.62
2018-11-20T01:11:40.764Z,5.50
2018-11-20T01:14:21.353Z,7.08
2018-11-20T01:17:08.421Z,5.75
2018-11-20T01:20:05.707Z,6.08
2018-11-20T01:22:45.866Z,6.67
2018-11-20T01:25:28.809Z,7.40
2018-11-20T01:28:26.269Z,7.50
2018-11-20T01:31:20.671Z,7.10
2018-11-20T01:34:04.176Z,6.42
2018-11-20T01:37:05.649Z,6.35
2018-11-20T01:39:56.645Z,5.92
2018-11-20T01:42:42.461Z,7.17
2018-11-20T01:45:42.820Z,7.50
2018-11-20T01:48:49.332Z,6.62
2018-11-20T01:51:37.678Z,7.20
2018-11-20T01:54:30.051Z,8.65
2018-11-20T01:57:21.355Z,6.25
2018-11-20T02:00:07.900Z,8.53
2018-11-20T02:02:55.807Z,7.05
2018-11-20T02:05:36.685Z,8.68
2018-11-20T02:08:27.466Z,8.43
2018-11-20T02:11:15.831Z,8.50
2018-11-20T02:14:13.190Z,7.92
2018-11-20T02:17:27.741Z,9.48
2018-11-20T02:20:14.494Z,8.68
2018-11-20T02:23:02.855Z,8.30
2018-11-20T02:26:34.372Z,8.73
2018-11-20T02:29:20.556Z,10.38
2018-11-20T02:31:57.756Z,10.15
2018-11-20T02:34:45.315Z,8.85
2018-11-20T02:37:31.825Z,10.60
2018-11-20T02:40:10.019Z,9.78
2018-11-20T02:42:57.634Z,9.83
2018-11-20T02:45:48.173Z,10.18
2018-11-20T02:48:54.131Z,10.72
2018-11-20T02:51:47.957Z,10.98
2018-11-20T02:54:34.013Z,12.10
2018-11-20T02:57:24.572Z,11.12
2018-11-20T03:00:24.053Z,11.93
2018-11-20T03:03:17.698Z,12.05
2018-11-20T03:05:57.706Z,13.05
2018-11-20T03:08:42.891Z,10.90
2018-11-20T03:11:48.383Z,11.70
2018-11-20T03:14:39.061Z,11.73
2018-11-20T03:17:22.141Z,12.90
2018-11-20T03:20:12.566Z,13.90
2018-11-20T03:23:00.091Z,14.73
2018-11-20T03:26:01.970Z,11.85
2018-11-20T03:28:58.434Z,15.53
2018-11-20T03:31:44.795Z,15.90
2018-11-20T03:34:23.400Z,12.50
2018-11-20T03:37:09.684Z,15.45
2018-11-20T03:39:58.251Z,15.20
2018-11-20T03:42:48.890Z,13.05
2018-11-20T03:45:42.429Z,14.68
2018-11-20T03:48:44.929Z,14.50
2018-11-20T03:51:44.691Z,14.80
2018-11-20T03:54:30.328Z,13.98
2018-11-20T03:57:16.764Z,16.80
2018-11-20T04:00:00.976Z,13.03
2018-11-20T04:03:03.596Z,15.03
2018-11-20T04:05:50.795Z,15.32
2018-11-20T04:08:36.966Z,15.00
2018-11-20T04:11:33.721Z,16.17
2018-11-20T04:14:36.446Z,15.60
2018-11-20T04:17:24.139Z,15.32
2018-11-20T04:20:11.670Z,17.02
2018-11-20T04:23:02.989Z,13.08
2018-11-20T04:25:47.020Z,15.32
2018-11-20T04:28:33.526Z,16.82
2018-11-20T04:32:03.683Z,16.55
2018-11-20T04:34:46.804Z,16.12
2018-11-20T04:37:25.279Z,17.10
2018-11-20T04:40:15.341Z,16.70
2018-11-20T04:43:06.864Z,18.02
2018-11-20T04:45:53.111Z,18.60
2018-11-20T04:48:46.227Z,16.55
2018-11-20T04:51:36.714Z,17.92
2018-11-20T04:54:33.268Z,15.70
2018-11-20T04:57:19.658Z,17.42
2018-11-20T05:00:07.178Z,18.52
2018-11-20T05:02:54.729Z,17.77
2018-11-20T05:05:51.078Z,18.27
2018-11-20T05:08:36.805Z,19.60
2018-11-20T05:11:30.745Z,18.73
2018-11-20T05:14:17.127Z,18.30
2018-11-20T05:17:07.672Z,19.10
2018-11-20T05:20:04.312Z,16.73
2018-11-20T05:23:00.846Z,16.93
2018-11-20T05:25:52.404Z,18.10
2018-11-20T05:28:53.710Z,16.73
2018-11-20T05:31:52.973Z,17.87
2018-11-20T05:34:30.064Z,18.50
2018-11-20T05:37:10.616Z,18.80
2018-11-20T05:40:03.874Z,19.07
2018-11-20T05:42:53.945Z,17.07
2018-11-20T05:45:40.317Z,17.92
2018-11-20T05:48:26.365Z,18.25
2018-11-20T05:51:01.874Z,15.83
2018-11-20T05:53:47.978Z,19.15
2018-11-20T05:56:32.248Z,17.62
2018-11-20T05:59:18.350Z,17.25
2018-11-20T06:02:04.096Z,19.55
2018-11-20T06:05:06.783Z,16.25
2018-11-20T06:07:52.640Z,17.85
2018-11-20T06:10:55.049Z,19.35
2018-11-20T06:14:00.416Z,19.45
2018-11-20T06:16:46.459Z,18.62
2018-11-20T06:19:32.784Z,17.45
2018-11-20T06:22:26.476Z,17.98
2018-11-20T06:25:14.001Z,16.90
2018-11-20T06:28:02.373Z,16.42
2018-11-20T06:30:52.584Z,17.60
2018-11-20T06:33:39.568Z,16.35
2018-11-20T06:36:30.153Z,16.48
2018-11-20T06:39:27.336Z,17.27
2018-11-20T06:42:13.515Z,17.23
2018-11-20T06:45:00.049Z,18.50
2018-11-20T06:47:46.411Z,15.90
2018-11-20T06:50:32.703Z,18.20
2018-11-20T06:53:26.476Z,19.37
2018-11-20T06:56:29.017Z,17.77
2018-11-20T06:59:17.431Z,16.82
2018-11-20T07:02:03.501Z,18.95
2018-11-20T07:05:02.796Z,17.48
2018-11-20T07:07:40.383Z,17.02
2018-11-20T07:10:36.809Z,18.37
2018-11-20T07:13:43.975Z,15.95
2018-11-20T07:16:51.664Z,19.85
2018-11-20T07:19:40.139Z,17.80
2018-11-20T07:22:30.401Z,17.73
2018-11-20T07:25:26.940Z,16.48
2018-11-20T07:28:23.655Z,17.15
2018-11-20T07:31:11.158Z,17.77
2018-11-20T07:33:58.423Z,15.88
2018-11-20T07:36:46.045Z,15.68
2018-11-20T07:39:31.733Z,17.35
2018-11-20T07:42:15.726Z,16.95
2018-11-20T07:45:14.702Z,16.23
2018-11-20T07:48:02.248Z,15.35
2018-11-20T07:50:48.075Z,14.83
2018-11-20T07:53:29.111Z,18.10
2018-11-20T07:56:15.461Z,16.30
2018-11-20T07:58:50.127Z,17.98
2018-11-20T08:01:36.181Z,16.80
2018-11-20T08:04:29.912Z,18.90
2018-11-20T08:07:20.479Z,16.75
2018-11-20T08:10:06.743Z,17.80
2018-11-20T08:12:54.221Z,16.27
2018-11-20T08:15:50.758Z,12.18
2018-11-20T08:18:28.744Z,14.73
2018-11-20T08:21:16.285Z,15.95
2018-11-20T08:24:22.125Z,18.23
2018-11-20T08:27:02.221Z,17.07
2018-11-20T08:30:08.112Z,17.90
2018-11-20T08:32:58.597Z,13.80
2018-11-20T08:35:48.778Z,19.20
2018-11-20T08:38:28.418Z,15.40
2018-11-20T08:41:24.684Z,15.18
2018-11-20T08:44:24.216Z,20.37
2018-11-20T08:47:17.643Z,15.25
2018-11-20T08:50:04.076Z,16.42
2018-11-20T08:52:55.987Z,15.38
2018-11-20T08:55:43.495Z,17.50
2018-11-20T08:58:30.672Z,16.57
2018-11-20T09:01:17.047Z,16.17
2018-11-20T09:04:16.602Z,12.37
2018-11-20T09:07:04.417Z,16.20
2018-11-20T09:09:50.725Z,15.68
2018-11-20T09:12:44.290Z,13.80
2018-11-20T09:15:30.607Z,15.60
2018-11-20T09:18:10.051Z,17.23
2018-11-20T09:20:55.985Z,18.10
2018-11-20T09:23:43.540Z,15.78
2018-11-20T09:26:40.199Z,18.57
2018-11-20T09:29:26.263Z,15.00
2018-11-20T09:32:16.668Z,17.15
2018-11-20T09:35:03.202Z,16.77
2018-11-20T09:37:59.630Z,17.02
2018-11-20T09:41:05.621Z,18.05
2018-11-20T09:44:29.444Z,18.20
2018-11-20T09:47:10.760Z,18.07
2018-11-20T09:50:04.014Z,16.90
2018-11-20T09:52:50.244Z,15.72
2018-11-20T09:55:36.562Z,15.20
2018-11-20T09:58:23.145Z,16.80
2018-11-20T10:00:59.282Z,16.62
2018-11-20T10:03:52.677Z,17.98
2018-11-20T10:06:38.529Z,17.05
2018-11-20T10:09:28.085Z,12.88
2018-11-20T10:12:14.134Z,16.52
2018-11-20T10:15:01.834Z,15.18
2018-11-20T10:17:53.066Z,17.27
2018-11-20T10:20:39.506Z,16.95
2018-11-20T10:23:32.983Z,17.42
2018-11-20T10:26:32.698Z,16.45
2018-11-20T10:29:24.895Z,14.95
2018-11-20T10:32:30.895Z,16.87
2018-11-20T10:35:17.188Z,15.03
2018-11-20T10:37:56.452Z,17.32
2018-11-20T10:40:53.237Z,15.85
2018-11-20T10:43:39.572Z,17.45
2018-11-20T10:46:27.229Z,18.82
2018-11-20T10:49:13.320Z,19.07
2018-11-20T10:52:06.540Z,15.10
2018-11-20T10:54:59.812Z,18.12
2018-11-20T10:58:02.671Z,16.00
2018-11-20T11:00:49.107Z,17.30
2018-11-20T11:03:35.394Z,16.15
2018-11-20T11:06:21.418Z,18.65
2018-11-20T11:09:07.508Z,17.12
2018-11-20T11:12:06.269Z,18.17
2018-11-20T11:14:56.486Z,26.37
2018-11-20T11:17:38.376Z,17.23
2018-11-20T11:20:15.131Z,18.67
2018-11-20T11:23:01.427Z,19.50
2018-11-20T11:26:04.036Z,19.00
2018-11-20T11:28:51.431Z,20.60
2018-11-20T11:31:36.404Z,18.45
2018-11-20T11:34:26.995Z,16.27
2018-11-20T11:37:14.544Z,22.37
2018-11-20T11:40:07.756Z,17.12
2018-11-20T11:43:01.050Z,14.25
2018-11-20T11:45:55.788Z,15.58
2018-11-20T11:48:45.850Z,19.00
2018-11-20T11:51:42.199Z,17.73
2018-11-20T11:54:29.758Z,17.02
2018-11-20T11:57:15.812Z,15.95
2018-11-20T12:00:01.762Z,18.25
2018-11-20T12:06:03.057Z,17.55
2018-11-20T12:08:53.610Z,17.02
2018-11-20T12:11:39.797Z,18.10
2018-11-20T12:14:22.609Z,18.37
2018-11-20T12:17:19.268Z,19.45
2018-11-20T12:20:18.819Z,13.80
2018-11-20T12:23:12.161Z,15.50
2018-11-20T12:26:11.640Z,17.48
2018-11-20T12:29:02.150Z,16.73
2018-11-20T12:31:52.219Z,16.10
2018-11-20T12:34:51.809Z,19.10
2018-11-20T12:37:37.976Z,20.05
2018-11-20T12:40:24.311Z,16.85
2018-11-20T12:43:10.162Z,19.77
2018-11-20T12:45:57.147Z,18.57
2018-11-20T12:48:44.202Z,18.07
2018-11-20T12:51:27.353Z,20.82
2018-11-20T12:54:14.772Z,17.70
2018-11-20T12:56:58.341Z,17.90
2018-11-20T12:59:42.233Z,17.42
2018-11-20T13:02:32.505Z,17.70
2018-11-20T13:05:18.863Z,15.70
2018-11-20T13:08:09.212Z,18.92
2018-11-20T13:10:54.901Z,16.60
2018-11-20T13:13:41.156Z,18.25
2018-11-20T13:16:35.253Z,15.70
2018-11-20T13:19:33.328Z,15.10
2018-11-20T13:22:22.055Z,19.80
2018-11-20T13:25:09.611Z,14.73
2018-11-20T13:28:00.210Z,17.23
2018-11-20T13:30:48.140Z,17.85
2018-11-20T13:33:34.628Z,17.10
2018-11-20T13:36:22.148Z,16.95
2018-11-20T13:39:21.910Z,16.97
2018-11-20T13:42:03.885Z,17.52
2018-11-20T13:44:58.097Z,17.42
2018-11-20T13:47:52.234Z,16.62
2018-11-20T13:50:47.722Z,19.15
2018-11-20T13:53:33.786Z,26.05
2018-11-20T13:56:19.802Z,19.35
2018-11-20T13:59:06.362Z,20.02
2018-11-20T14:01:59.823Z,25.82
2018-11-20T14:04:45.750Z,18.05
2018-11-20T14:07:42.127Z,16.17
2018-11-20T14:10:45.920Z,13.30
2018-11-20T14:13:31.084Z,16.07
2018-11-20T14:16:21.522Z,14.05
2018-11-20T14:19:18.640Z,16.23
2018-11-20T14:22:04.689Z,16.37
2018-11-20T14:24:55.418Z,18.12
2018-11-20T14:27:49.090Z,19.02
2018-11-20T14:30:35.804Z,17.42
2018-11-20T14:33:22.191Z,17.40
2018-11-20T14:36:08.294Z,14.53
2018-11-20T14:38:49.144Z,17.80
2018-11-20T14:41:35.333Z,15.68
2018-11-20T14:44:21.623Z,19.48
2018-11-20T14:47:07.786Z,18.50
2018-11-20T14:49:54.125Z,13.95
2018-11-20T14:52:46.190Z,15.15
2018-11-20T14:55:32.445Z,17.27
2018-11-20T14:58:20.050Z,16.87
2018-11-20T15:01:13.619Z,17.35
2018-11-20T15:04:07.136Z,15.20
2018-11-20T15:06:54.917Z,19.60
2018-11-20T15:09:51.210Z,17.35
2018-11-20T15:12:39.050Z,16.30
2018-11-20T15:15:32.443Z,23.22
2018-11-20T15:18:24.548Z,20.57
2018-11-20T15:21:10.632Z,17.05
2018-11-20T15:23:48.139Z,19.42
2018-11-20T15:26:30.994Z,17.70
2018-11-20T15:29:10.390Z,17.30
2018-11-20T15:32:03.629Z,17.82
2018-11-20T15:34:53.667Z,16.50
2018-11-20T15:37:47.256Z,14.93
2018-11-20T15:40:37.687Z,17.25
2018-11-20T15:43:34.443Z,18.98
2018-11-20T15:46:20.475Z,18.45
2018-11-20T15:49:06.829Z,16.02
2018-11-20T15:51:54.348Z,18.37
2018-11-20T15:54:40.344Z,21.00
2018-11-20T15:57:30.153Z,19.62
2018-11-20T16:00:16.141Z,20.30
2018-11-20T16:03:06.559Z,17.98
2018-11-20T16:05:56.369Z,16.80
2018-11-20T16:08:58.625Z,18.82
2018-11-20T16:11:40.119Z,17.12
2018-11-20T16:14:45.967Z,19.52
2018-11-20T16:17:39.315Z,19.07
2018-11-20T16:20:39.202Z,18.48
2018-11-20T16:23:25.302Z,15.93
2018-11-20T16:26:11.833Z,18.98
2018-11-20T16:29:04.978Z,20.40
2018-11-20T16:32:04.945Z,20.00
2018-11-20T16:35:01.521Z,19.05
2018-11-20T16:37:49.062Z,17.20
2018-11-20T16:40:35.114Z,18.42
2018-11-20T16:43:21.295Z,18.12
2018-11-20T16:46:07.645Z,21.48
2018-11-20T16:48:58.050Z,16.62
2018-11-20T16:51:51.874Z,17.77
2018-11-20T16:54:37.981Z,18.42
2018-11-20T16:57:28.440Z,20.60
2018-11-20T17:00:15.988Z,22.05
2018-11-20T17:03:15.862Z,19.92
2018-11-20T17:06:05.958Z,20.20
2018-11-20T17:09:08.544Z,22.45
2018-11-20T17:11:56.079Z,20.57
2018-11-20T17:14:55.492Z,19.48
2018-11-20T17:17:46.024Z,18.12
2018-11-20T17:20:32.412Z,18.55
2018-11-20T17:23:37.890Z,19.07
2018-11-20T17:26:37.568Z,20.43
2018-11-20T17:29:43.044Z,20.32
2018-11-20T17:32:32.414Z,16.27
2018-11-20T17:35:19.820Z,17.82
2018-11-20T17:38:06.384Z,16.57
2018-11-20T17:40:57.559Z,18.57
2018-11-20T17:43:48.136Z,19.50
2018-11-20T17:46:50.897Z,20.92
2018-11-20T17:49:36.868Z,19.40
2018-11-20T17:52:42.568Z,18.17
2018-11-20T17:55:30.123Z,20.10
2018-11-20T17:58:07.289Z,19.23
2018-11-20T18:00:54.829Z,20.50
2018-11-20T18:03:35.899Z,20.85
2018-11-20T18:06:22.341Z,20.62
2018-11-20T18:09:18.435Z,21.05
2018-11-20T18:12:04.547Z,19.92
2018-11-20T18:14:52.120Z,18.02
2018-11-20T18:17:38.353Z,24.25
2018-11-20T18:20:19.144Z,20.60
2018-11-20T18:23:05.339Z,20.32
2018-11-20T18:25:58.410Z,21.52
2018-11-20T18:28:44.775Z,19.37
2018-11-20T18:31:38.037Z,20.80
2018-11-20T18:34:43.836Z,19.98
2018-11-20T18:37:34.128Z,21.60
2018-11-20T18:40:36.507Z,20.43
2018-11-20T18:43:24.341Z,20.15
2018-11-20T18:46:24.326Z,24.82
2018-11-20T18:49:23.947Z,22.27
2018-11-20T18:52:10.493Z,21.82
2018-11-20T18:55:10.182Z,20.62
2018-11-20T18:57:56.170Z,22.02
2018-11-20T19:00:38.363Z,21.10
2018-11-20T19:03:31.880Z,20.70
2018-11-20T19:06:31.737Z,20.17
2018-11-20T19:09:18.293Z,20.32
2018-11-20T19:12:14.856Z,22.60
2018-11-20T19:15:01.045Z,23.20
2018-11-20T19:18:00.598Z,20.25
2018-11-20T19:20:54.068Z,19.48
2018-11-20T19:23:50.359Z,21.25
2018-11-20T19:26:33.555Z,20.88
2018-11-20T19:29:09.813Z,22.22
2018-11-20T19:31:56.093Z,19.48
2018-11-20T19:35:01.721Z,21.90
2018-11-20T19:37:47.899Z,21.02
2018-11-20T19:40:34.015Z,19.52
2018-11-20T19:43:35.539Z,19.32
2018-11-20T19:46:21.912Z,20.32
2018-11-20T19:49:09.528Z,20.55
2018-11-20T19:52:01.019Z,19.20
2018-11-20T19:54:46.431Z,21.80
2018-11-20T19:57:33.111Z,18.80
2018-11-20T20:00:32.827Z,19.82
2018-11-20T20:03:18.870Z,18.17
2018-11-20T20:06:24.734Z,19.87
2018-11-20T20:09:18.287Z,18.77
2018-11-20T20:12:04.311Z,22.30
2018-11-20T20:15:00.994Z,21.45
2018-11-20T20:17:54.210Z,19.07
2018-11-20T20:20:40.466Z,21.62
2018-11-20T20:23:34.071Z,21.10
2018-11-20T20:26:33.353Z,21.95
2018-11-20T20:29:19.469Z,21.60
2018-11-20T20:32:22.210Z,22.32
2018-11-20T20:35:05.829Z,21.10
2018-11-20T20:38:05.377Z,18.80
2018-11-20T20:41:04.918Z,20.17
2018-11-20T20:43:50.875Z,19.37
2018-11-20T20:46:29.150Z,17.62
2018-11-20T20:49:31.660Z,17.00
2018-11-20T20:52:19.207Z,19.50
2018-11-20T20:55:05.516Z,17.77
2018-11-20T20:57:55.835Z,17.95
2018-11-20T21:01:01.799Z,20.17
2018-11-20T21:03:42.999Z,17.07
2018-11-20T21:06:25.889Z,18.98
2018-11-20T21:09:16.117Z,18.35
2018-11-20T21:11:59.189Z,18.45
2018-11-20T21:14:45.450Z,17.95
2018-11-20T21:17:32.977Z,17.50
2018-11-20T21:20:32.759Z,16.62
2018-11-20T21:23:38.134Z,17.57
2018-11-20T21:26:24.132Z,16.30
2018-11-20T21:29:05.047Z,15.55
2018-11-20T21:31:52.595Z,19.67
2018-11-20T21:34:44.416Z,19.32
2018-11-20T21:37:31.969Z,17.60
2018-11-20T21:40:18.059Z,18.32
2018-11-20T21:43:17.868Z,21.05
2018-11-20T21:46:04.343Z,20.10
2018-11-20T21:48:50.603Z,19.00
2018-11-20T21:51:31.531Z,16.93
2018-11-20T21:54:12.014Z,15.60
2018-11-20T21:56:58.285Z,17.90
2018-11-20T21:59:50.727Z,16.52
2018-11-20T22:02:40.939Z,17.25
2018-11-20T22:05:27.343Z,16.90
2018-11-20T22:08:24.931Z,18.92
2018-11-20T22:11:15.079Z,17.85
2018-11-20T22:13:51.556Z,17.98
2018-11-20T22:16:51.286Z,18.55
2018-11-20T22:19:37.377Z,16.90
2018-11-20T22:22:30.724Z,21.37
2018-11-20T22:25:18.259Z,19.52
2018-11-20T22:28:00.286Z,19.05
2018-11-20T22:30:59.795Z,18.02
2018-11-20T22:33:50.096Z,19.10
2018-11-20T22:36:37.656Z,20.05
2018-11-20T22:39:26.316Z,16.97
2018-11-20T22:42:31.925Z,17.67
2018-11-20T22:45:19.484Z,19.17
2018-11-20T22:48:13.028Z,19.25
2018-11-20T22:50:55.446Z,17.70
2018-11-20T22:54:01.217Z,17.87
2018-11-20T22:56:41.454Z,19.42
2018-11-20T22:59:34.632Z,19.00
2018-11-20T23:02:20.766Z,16.65
2018-11-20T23:05:13.277Z,19.17
2018-11-20T23:07:54.682Z,17.65
2018-11-20T23:10:24.125Z,20.05
2018-11-20T23:12:52.923Z,16.52
2018-11-20T23:15:21.319Z,17.25
2018-11-20T23:17:49.872Z,18.10
2018-11-20T23:20:18.251Z,19.23
2018-11-20T23:22:46.626Z,18.57
2018-11-20T23:25:15.724Z,18.65
2018-11-20T23:27:44.146Z,18.17
2018-11-20T23:30:16.317Z,18.15
2018-11-20T23:32:44.699Z,17.67
2018-11-20T23:35:13.550Z,16.57
2018-11-20T23:37:42.575Z,19.62
2018-11-20T23:40:12.157Z,20.27
2018-11-20T23:42:40.503Z,19.55
2018-11-20T23:45:11.304Z,18.57
2018-11-20T23:47:39.701Z,18.17
2018-11-20T23:50:09.871Z,18.57
2018-11-20T23:52:38.465Z,18.45
2018-11-20T23:55:08.885Z,19.20
2018-11-20T23:57:37.250Z,16.80
